sensor_id;sensor_type;location;lat;lon;timestamp;temperature;humidity
69084;SHT31;56185;48.526;9.044;2023-02-01T06:40:20;4.31;85.40
69084;SHT31;56185;48.526;9.044;2023-02-01T06:42:48;4.36;85.58
69084;SHT31;56185;48.526;9.044;2023-02-01T06:45:13;4.39;85.95
69084;SHT31;56185;48.526;9.044;2023-02-01T06:47:38;4.24;85.69
69084;SHT31;56185;48.526;9.044;2023-02-01T06:50:04;4.25;85.83
69084;SHT31;56185;48.526;9.044;2023-02-01T06:52:29;4.36;85.56
69084;SHT31;56185;48.526;9.044;2023-02-01T06:54:55;4.35;85.53
69084;SHT31;56185;48.526;9.044;2023-02-01T06:57:20;4.31;85.51
69084;SHT31;56185;48.526;9.044;2023-02-01T06:59:45;4.26;85.19
69084;SHT31;56185;48.526;9.044;2023-02-01T07:02:11;4.28;85.42
69084;SHT31;56185;48.526;9.044;2023-02-01T07:04:36;4.22;84.53
69084;SHT31;56185;48.526;9.044;2023-02-01T07:07:01;4.29;84.55
69084;SHT31;56185;48.526;9.044;2023-02-01T07:09:27;4.25;84.63
69084;SHT31;56185;48.526;9.044;2023-02-01T07:11:52;4.25;84.23
69084;SHT31;56185;48.526;9.044;2023-02-01T07:14:19;4.18;84.69
69084;SHT31;56185;48.526;9.044;2023-02-01T07:16:44;4.26;84.47
69084;SHT31;56185;48.526;9.044;2023-02-01T07:19:09;4.28;84.61
69084;SHT31;56185;48.526;9.044;2023-02-01T07:21:34;4.25;84.52
69084;SHT31;56185;48.526;9.044;2023-02-01T07:24:00;4.18;84.70
69084;SHT31;56185;48.526;9.044;2023-02-01T07:26:25;4.24;84.62
69084;SHT31;56185;48.526;9.044;2023-02-01T07:28:50;4.19;84.91
69084;SHT31;56185;48.526;9.044;2023-02-01T07:31:17;4.22;84.62
69084;SHT31;56185;48.526;9.044;2023-02-01T07:33:43;4.21;84.83
69084;SHT31;56185;48.526;9.044;2023-02-01T07:36:14;4.14;84.30
69084;SHT31;56185;48.526;9.044;2023-02-01T07:38:40;4.25;84.57
69084;SHT31;56185;48.526;9.044;2023-02-01T07:41:06;4.28;84.74
69084;SHT31;56185;48.526;9.044;2023-02-01T07:43:35;4.34;84.33
69084;SHT31;56185;48.526;9.044;2023-02-01T07:46:01;4.34;84.56
69084;SHT31;56185;48.526;9.044;2023-02-01T07:48:27;4.41;83.98
69084;SHT31;56185;48.526;9.044;2023-02-01T07:51:08;4.41;84.11
69084;SHT31;56185;48.526;9.044;2023-02-01T07:53:34;4.26;83.83
69084;SHT31;56185;48.526;9.044;2023-02-01T07:56:00;4.38;83.24
69084;SHT31;56185;48.526;9.044;2023-02-01T07:58:26;4.48;82.98
69084;SHT31;56185;48.526;9.044;2023-02-01T08:00:52;4.44;82.94
69084;SHT31;56185;48.526;9.044;2023-02-01T08:03:17;4.48;82.68
69084;SHT31;56185;48.526;9.044;2023-02-01T08:05:43;4.59;82.66
69084;SHT31;56185;48.526;9.044;2023-02-01T08:08:08;4.59;82.48
69084;SHT31;56185;48.526;9.044;2023-02-01T08:10:34;4.57;82.34
69084;SHT31;56185;48.526;9.044;2023-02-01T08:12:59;4.60;82.19
69084;SHT31;56185;48.526;9.044;2023-02-01T08:15:25;4.57;82.31
69084;SHT31;56185;48.526;9.044;2023-02-01T08:17:51;4.63;81.62
69084;SHT31;56185;48.526;9.044;2023-02-01T08:20:19;4.59;81.75
69084;SHT31;56185;48.526;9.044;2023-02-01T08:22:44;4.55;81.47
69084;SHT31;56185;48.526;9.044;2023-02-01T08:25:10;4.67;81.83
69084;SHT31;56185;48.526;9.044;2023-02-01T08:27:36;4.66;81.68
69084;SHT31;56185;48.526;9.044;2023-02-01T08:30:02;4.70;80.93
69084;SHT31;56185;48.526;9.044;2023-02-01T08:32:28;4.60;80.84
69084;SHT31;56185;48.526;9.044;2023-02-01T08:34:53;4.66;81.00
69084;SHT31;56185;48.526;9.044;2023-02-01T08:37:19;4.74;81.47
69084;SHT31;56185;48.526;9.044;2023-02-01T08:39:47;4.72;80.79
69084;SHT31;56185;48.526;9.044;2023-02-01T08:42:12;4.63;81.26
69084;SHT31;56185;48.526;9.044;2023-02-01T08:44:38;4.69;81.31
69084;SHT31;56185;48.526;9.044;2023-02-01T08:47:03;4.69;80.72
69084;SHT31;56185;48.526;9.044;2023-02-01T08:49:29;4.73;80.78
69084;SHT31;56185;48.526;9.044;2023-02-01T08:51:54;4.67;81.21
69084;SHT31;56185;48.526;9.044;2023-02-01T08:54:20;4.76;80.84
69084;SHT31;56185;48.526;9.044;2023-02-01T08:56:46;4.76;80.36
69084;SHT31;56185;48.526;9.044;2023-02-01T08:59:11;4.80;80.15
69084;SHT31;56185;48.526;9.044;2023-02-01T09:01:36;4.67;80.24
69084;SHT31;56185;48.526;9.044;2023-02-01T09:04:01;4.70;80.73
69084;SHT31;56185;48.526;9.044;2023-02-01T09:06:27;4.76;80.31
69084;SHT31;56185;48.526;9.044;2023-02-01T09:08:52;4.77;80.42
69084;SHT31;56185;48.526;9.044;2023-02-01T09:11:18;4.74;80.70
69084;SHT31;56185;48.526;9.044;2023-02-01T09:13:43;4.76;80.43
69084;SHT31;56185;48.526;9.044;2023-02-01T09:16:09;4.87;80.13
69084;SHT31;56185;48.526;9.044;2023-02-01T09:18:34;4.79;79.89
69084;SHT31;56185;48.526;9.044;2023-02-01T09:21:03;4.83;80.04
69084;SHT31;56185;48.526;9.044;2023-02-01T09:23:29;4.73;79.98
69084;SHT31;56185;48.526;9.044;2023-02-01T09:25:59;4.83;80.08
69084;SHT31;56185;48.526;9.044;2023-02-01T09:28:24;4.86;80.01
69084;SHT31;56185;48.526;9.044;2023-02-01T09:30:49;4.86;80.09
69084;SHT31;56185;48.526;9.044;2023-02-01T09:33:14;4.83;80.12
69084;SHT31;56185;48.526;9.044;2023-02-01T09:35:40;4.77;79.19
69084;SHT31;56185;48.526;9.044;2023-02-01T09:38:05;4.80;79.22
69084;SHT31;56185;48.526;9.044;2023-02-01T09:40:30;4.79;79.73
69084;SHT31;56185;48.526;9.044;2023-02-01T09:43:11;4.74;79.47
69084;SHT31;56185;48.526;9.044;2023-02-01T09:45:49;4.72;79.40
69084;SHT31;56185;48.526;9.044;2023-02-01T09:48:23;4.74;79.49
69084;SHT31;56185;48.526;9.044;2023-02-01T09:50:55;4.86;79.25
69084;SHT31;56185;48.526;9.044;2023-02-01T09:53:58;4.90;79.05
69084;SHT31;56185;48.526;9.044;2023-02-01T09:56:29;4.93;78.96
69084;SHT31;56185;48.526;9.044;2023-02-01T10:01:53;5.04;78.14
69084;SHT31;56185;48.526;9.044;2023-02-01T10:04:18;5.00;78.24
69084;SHT31;56185;48.526;9.044;2023-02-01T10:17:27;5.08;77.33
69084;SHT31;56185;48.526;9.044;2023-02-01T10:20:01;5.15;76.59
69084;SHT31;56185;48.526;9.044;2023-02-01T10:23:28;5.24;76.86
69084;SHT31;56185;48.526;9.044;2023-02-01T10:26:04;5.18;76.07
69084;SHT31;56185;48.526;9.044;2023-02-01T10:28:34;5.23;76.70
69084;SHT31;56185;48.526;9.044;2023-02-01T10:31:00;5.34;76.33
69084;SHT31;56185;48.526;9.044;2023-02-01T10:33:33;5.44;76.36
69084;SHT31;56185;48.526;9.044;2023-02-01T10:36:05;5.32;75.83
69084;SHT31;56185;48.526;9.044;2023-02-01T10:38:33;5.44;75.72
69084;SHT31;56185;48.526;9.044;2023-02-01T10:41:07;5.36;75.88
69084;SHT31;56185;48.526;9.044;2023-02-01T10:43:34;5.44;76.57
69084;SHT31;56185;48.526;9.044;2023-02-01T10:45:59;5.39;75.96
69084;SHT31;56185;48.526;9.044;2023-02-01T10:48:25;5.49;74.98
69084;SHT31;56185;48.526;9.044;2023-02-01T10:50:58;5.39;74.97
69084;SHT31;56185;48.526;9.044;2023-02-01T10:53:29;5.49;75.64
69084;SHT31;56185;48.526;9.044;2023-02-01T10:55:56;5.58;74.90
69084;SHT31;56185;48.526;9.044;2023-02-01T10:58:32;5.54;74.60
69084;SHT31;56185;48.526;9.044;2023-02-01T11:01:07;5.46;74.39
69084;SHT31;56185;48.526;9.044;2023-02-01T11:03:37;5.55;74.17
69084;SHT31;56185;48.526;9.044;2023-02-01T11:06:19;5.51;74.42
69084;SHT31;56185;48.526;9.044;2023-02-01T11:08:52;5.59;74.68
69084;SHT31;56185;48.526;9.044;2023-02-01T11:11:17;5.56;74.62
69084;SHT31;56185;48.526;9.044;2023-02-01T11:13:43;5.63;74.38
69084;SHT31;56185;48.526;9.044;2023-02-01T11:16:13;5.58;74.55
69084;SHT31;56185;48.526;9.044;2023-02-01T11:18:38;5.65;74.68
69084;SHT31;56185;48.526;9.044;2023-02-01T11:21:05;5.69;74.15
69084;SHT31;56185;48.526;9.044;2023-02-01T11:23:32;5.66;73.88
69084;SHT31;56185;48.526;9.044;2023-02-01T11:26:00;5.63;74.08
69084;SHT31;56185;48.526;9.044;2023-02-01T11:28:32;5.73;74.48
69084;SHT31;56185;48.526;9.044;2023-02-01T11:31:05;5.66;73.48
69084;SHT31;56185;48.526;9.044;2023-02-01T11:33:34;5.62;74.05
69084;SHT31;56185;48.526;9.044;2023-02-01T11:36:15;5.60;74.21
69084;SHT31;56185;48.526;9.044;2023-02-01T11:38:50;5.62;74.03
69084;SHT31;56185;48.526;9.044;2023-02-01T11:41:25;5.65;74.01
69084;SHT31;56185;48.526;9.044;2023-02-01T11:43:56;5.69;74.52
69084;SHT31;56185;48.526;9.044;2023-02-01T11:46:28;5.67;73.38
69084;SHT31;56185;48.526;9.044;2023-02-01T11:48:55;5.75;73.57
69084;SHT31;56185;48.526;9.044;2023-02-01T11:51:42;5.77;74.04
69084;SHT31;56185;48.526;9.044;2023-02-01T12:00:01;5.76;73.19
69084;SHT31;56185;48.526;9.044;2023-02-01T12:05:14;5.94;72.99
69084;SHT31;56185;48.526;9.044;2023-02-01T12:07:54;5.93;72.42
69084;SHT31;56185;48.526;9.044;2023-02-01T12:10:55;5.92;71.40
69084;SHT31;56185;48.526;9.044;2023-02-01T12:15:56;5.82;71.96
69084;SHT31;56185;48.526;9.044;2023-02-01T12:21:28;5.77;72.02
69084;SHT31;56185;48.526;9.044;2023-02-01T12:23:59;5.79;72.20
69084;SHT31;56185;48.526;9.044;2023-02-01T12:29:56;5.87;71.85
69084;SHT31;56185;48.526;9.044;2023-02-01T12:38:42;5.73;72.12
69084;SHT31;56185;48.526;9.044;2023-02-01T12:43:56;5.63;72.23
69084;SHT31;56185;48.526;9.044;2023-02-01T12:46:28;5.58;71.63
69084;SHT31;56185;48.526;9.044;2023-02-01T12:52:01;5.58;72.49
69084;SHT31;56185;48.526;9.044;2023-02-01T12:54:40;5.54;72.07
69084;SHT31;56185;48.526;9.044;2023-02-01T12:57:13;5.67;72.49
69084;SHT31;56185;48.526;9.044;2023-02-01T12:59:49;5.63;71.47
69084;SHT31;56185;48.526;9.044;2023-02-01T13:07:44;5.45;72.41
69084;SHT31;56185;48.526;9.044;2023-02-01T13:10:18;5.48;72.58
69084;SHT31;56185;48.526;9.044;2023-02-01T13:12:50;5.58;72.78
69084;SHT31;56185;48.526;9.044;2023-02-01T13:15:27;5.55;72.73
69084;SHT31;56185;48.526;9.044;2023-02-01T13:17:55;5.44;73.23
69084;SHT31;56185;48.526;9.044;2023-02-01T13:23:05;5.49;72.98
69084;SHT31;56185;48.526;9.044;2023-02-01T13:25:39;5.45;73.53
69084;SHT31;56185;48.526;9.044;2023-02-01T13:28:14;5.51;74.28
69084;SHT31;56185;48.526;9.044;2023-02-01T13:31:13;5.49;74.13
69084;SHT31;56185;48.526;9.044;2023-02-01T13:42:58;5.36;74.42
69084;SHT31;56185;48.526;9.044;2023-02-01T13:45:30;5.46;74.63
69084;SHT31;56185;48.526;9.044;2023-02-01T13:47:58;5.54;74.32
69084;SHT31;56185;48.526;9.044;2023-02-01T13:50:26;5.51;73.73
69084;SHT31;56185;48.526;9.044;2023-02-01T13:53:01;5.59;74.07
69084;SHT31;56185;48.526;9.044;2023-02-01T13:55:55;5.51;73.72
69084;SHT31;56185;48.526;9.044;2023-02-01T13:58:30;5.46;73.54
69084;SHT31;56185;48.526;9.044;2023-02-01T14:03:48;5.54;73.36
69084;SHT31;56185;48.526;9.044;2023-02-01T14:06:17;5.51;74.05
69084;SHT31;56185;48.526;9.044;2023-02-01T14:08:45;5.45;73.73
69084;SHT31;56185;48.526;9.044;2023-02-01T14:11:32;5.49;73.68
69084;SHT31;56185;48.526;9.044;2023-02-01T14:14:51;5.59;73.48
69084;SHT31;56185;48.526;9.044;2023-02-01T14:19:28;5.56;73.19
69084;SHT31;56185;48.526;9.044;2023-02-01T14:21:58;5.44;72.93
69084;SHT31;56185;48.526;9.044;2023-02-01T14:24:34;5.59;73.34
69084;SHT31;56185;48.526;9.044;2023-02-01T14:27:18;5.48;73.52
69084;SHT31;56185;48.526;9.044;2023-02-01T14:29:50;5.49;73.31
69084;SHT31;56185;48.526;9.044;2023-02-01T14:32:21;5.62;73.29
69084;SHT31;56185;48.526;9.044;2023-02-01T14:34:56;5.60;72.84
69084;SHT31;56185;48.526;9.044;2023-02-01T14:37:34;5.55;73.02
69084;SHT31;56185;48.526;9.044;2023-02-01T14:40:14;5.69;72.54
69084;SHT31;56185;48.526;9.044;2023-02-01T14:47:43;5.55;72.53
69084;SHT31;56185;48.526;9.044;2023-02-01T14:50:21;5.44;72.96
69084;SHT31;56185;48.526;9.044;2023-02-01T14:52:51;5.52;73.45
69084;SHT31;56185;48.526;9.044;2023-02-01T14:55:33;5.55;72.89
69084;SHT31;56185;48.526;9.044;2023-02-01T14:58:02;5.52;73.14
69084;SHT31;56185;48.526;9.044;2023-02-01T15:00:30;5.63;72.93
69084;SHT31;56185;48.526;9.044;2023-02-01T15:03:19;5.69;72.99
69084;SHT31;56185;48.526;9.044;2023-02-01T15:05:57;5.56;72.47
69084;SHT31;56185;48.526;9.044;2023-02-01T15:08:27;5.54;73.10
69084;SHT31;56185;48.526;9.044;2023-02-01T15:10:56;5.44;72.82
69084;SHT31;56185;48.526;9.044;2023-02-01T15:13:26;5.48;73.09
69084;SHT31;56185;48.526;9.044;2023-02-01T15:16:12;5.54;72.78
69084;SHT31;56185;48.526;9.044;2023-02-01T15:18:38;5.55;73.12
69084;SHT31;56185;48.526;9.044;2023-02-01T15:21:05;5.58;73.29
69084;SHT31;56185;48.526;9.044;2023-02-01T15:23:31;5.67;73.58
69084;SHT31;56185;48.526;9.044;2023-02-01T15:25:57;5.48;73.55
69084;SHT31;56185;48.526;9.044;2023-02-01T15:28:22;5.38;73.57
69084;SHT31;56185;48.526;9.044;2023-02-01T15:33:20;5.41;73.90
69084;SHT31;56185;48.526;9.044;2023-02-01T15:35:51;5.45;73.90
69084;SHT31;56185;48.526;9.044;2023-02-01T15:43:26;5.51;74.25
69084;SHT31;56185;48.526;9.044;2023-02-01T15:45:56;5.45;73.81
69084;SHT31;56185;48.526;9.044;2023-02-01T15:48:24;5.44;74.44
69084;SHT31;56185;48.526;9.044;2023-02-01T15:50:52;5.41;74.55
69084;SHT31;56185;48.526;9.044;2023-02-01T15:53:20;5.51;74.41
69084;SHT31;56185;48.526;9.044;2023-02-01T15:55:55;5.52;74.05
69084;SHT31;56185;48.526;9.044;2023-02-01T15:58:22;5.48;74.11
69084;SHT31;56185;48.526;9.044;2023-02-01T16:00:51;5.48;74.10
69084;SHT31;56185;48.526;9.044;2023-02-01T16:03:33;5.38;74.06
69084;SHT31;56185;48.526;9.044;2023-02-01T16:06:00;5.48;74.02
69084;SHT31;56185;48.526;9.044;2023-02-01T16:08:28;5.38;73.92
69084;SHT31;56185;48.526;9.044;2023-02-01T16:11:00;5.45;74.04
69084;SHT31;56185;48.526;9.044;2023-02-01T16:13:25;5.49;74.04
69084;SHT31;56185;48.526;9.044;2023-02-01T16:15:50;5.34;74.04
69084;SHT31;56185;48.526;9.044;2023-02-01T16:18:16;5.41;74.10
69084;SHT31;56185;48.526;9.044;2023-02-01T16:20:42;5.38;73.62
69084;SHT31;56185;48.526;9.044;2023-02-01T16:23:09;5.30;73.50
69084;SHT31;56185;48.526;9.044;2023-02-01T16:25:36;5.34;73.14
69084;SHT31;56185;48.526;9.044;2023-02-01T16:28:01;5.42;73.62
69084;SHT31;56185;48.526;9.044;2023-02-01T16:30:27;5.34;72.94
69084;SHT31;56185;48.526;9.044;2023-02-01T16:32:58;5.35;73.17
69084;SHT31;56185;48.526;9.044;2023-02-01T16:35:26;5.32;73.37
69084;SHT31;56185;48.526;9.044;2023-02-01T16:37:52;5.38;73.09
69084;SHT31;56185;48.526;9.044;2023-02-01T16:40:19;5.41;72.89
69084;SHT31;56185;48.526;9.044;2023-02-01T16:42:46;5.23;72.89
69084;SHT31;56185;48.526;9.044;2023-02-01T16:45:12;5.31;72.68
69084;SHT31;56185;48.526;9.044;2023-02-01T16:47:38;5.18;73.15
69084;SHT31;56185;48.526;9.044;2023-02-01T16:50:15;5.18;73.08
69084;SHT31;56185;48.526;9.044;2023-02-01T16:52:41;5.10;73.11
69084;SHT31;56185;48.526;9.044;2023-02-01T16:55:15;5.05;73.19
69084;SHT31;56185;48.526;9.044;2023-02-01T16:57:42;5.18;73.16
69084;SHT31;56185;48.526;9.044;2023-02-01T17:00:11;5.10;73.34
69084;SHT31;56185;48.526;9.044;2023-02-01T17:02:37;5.11;73.51
69084;SHT31;56185;48.526;9.044;2023-02-01T17:05:03;5.05;73.50
69084;SHT31;56185;48.526;9.044;2023-02-01T17:07:29;5.08;73.24
69084;SHT31;56185;48.526;9.044;2023-02-01T17:09:54;5.08;73.46
69084;SHT31;56185;48.526;9.044;2023-02-01T17:12:25;5.00;73.81
69084;SHT31;56185;48.526;9.044;2023-02-01T17:14:51;4.98;73.82
69084;SHT31;56185;48.526;9.044;2023-02-01T17:17:19;4.98;74.48
69084;SHT31;56185;48.526;9.044;2023-02-01T17:19:46;4.98;74.34
69084;SHT31;56185;48.526;9.044;2023-02-01T17:22:13;5.07;74.00
69084;SHT31;56185;48.526;9.044;2023-02-01T17:24:38;5.11;74.12
69084;SHT31;56185;48.526;9.044;2023-02-01T17:27:03;5.11;74.31
69084;SHT31;56185;48.526;9.044;2023-02-01T17:29:28;5.17;73.98
69084;SHT31;56185;48.526;9.044;2023-02-01T17:31:54;5.17;74.07
69084;SHT31;56185;48.526;9.044;2023-02-01T17:34:20;5.17;73.81
69084;SHT31;56185;48.526;9.044;2023-02-01T17:36:46;5.28;73.61
69084;SHT31;56185;48.526;9.044;2023-02-01T17:39:12;5.21;74.06
69084;SHT31;56185;48.526;9.044;2023-02-01T17:41:38;5.25;73.89
69084;SHT31;56185;48.526;9.044;2023-02-01T17:44:03;5.15;73.54
69084;SHT31;56185;48.526;9.044;2023-02-01T17:46:30;5.23;73.44
69084;SHT31;56185;48.526;9.044;2023-02-01T17:48:55;5.14;73.71
69084;SHT31;56185;48.526;9.044;2023-02-01T17:51:24;5.25;73.50
69084;SHT31;56185;48.526;9.044;2023-02-01T17:53:53;5.11;73.29
69084;SHT31;56185;48.526;9.044;2023-02-01T17:56:22;5.07;73.92
69084;SHT31;56185;48.526;9.044;2023-02-01T17:58:47;4.98;73.93
69084;SHT31;56185;48.526;9.044;2023-02-01T18:01:15;5.04;73.91
69084;SHT31;56185;48.526;9.044;2023-02-01T18:03:42;5.01;74.19
69084;SHT31;56185;48.526;9.044;2023-02-01T18:06:17;5.00;73.99
69084;SHT31;56185;48.526;9.044;2023-02-01T18:08:43;4.98;74.10
69084;SHT31;56185;48.526;9.044;2023-02-01T18:11:20;5.04;73.79
69084;SHT31;56185;48.526;9.044;2023-02-01T18:13:46;4.84;74.50
69084;SHT31;56185;48.526;9.044;2023-02-01T18:16:24;5.03;74.15
69084;SHT31;56185;48.526;9.044;2023-02-01T18:18:50;5.00;74.44
69084;SHT31;56185;48.526;9.044;2023-02-01T18:21:17;4.96;74.33
69084;SHT31;56185;48.526;9.044;2023-02-01T18:23:43;5.13;74.31
69084;SHT31;56185;48.526;9.044;2023-02-01T18:26:12;5.07;74.53
69084;SHT31;56185;48.526;9.044;2023-02-01T18:28:38;5.04;74.48
69084;SHT31;56185;48.526;9.044;2023-02-01T18:31:04;5.08;74.24
69084;SHT31;56185;48.526;9.044;2023-02-01T18:33:30;5.14;74.37
69084;SHT31;56185;48.526;9.044;2023-02-01T18:35:55;5.04;74.34
69084;SHT31;56185;48.526;9.044;2023-02-01T18:40:50;5.11;73.94
69084;SHT31;56185;48.526;9.044;2023-02-01T18:43:16;5.23;74.00
69084;SHT31;56185;48.526;9.044;2023-02-01T18:45:43;5.11;73.90
69084;SHT31;56185;48.526;9.044;2023-02-01T18:48:09;5.11;73.93
69084;SHT31;56185;48.526;9.044;2023-02-01T18:50:37;5.23;73.71
69084;SHT31;56185;48.526;9.044;2023-02-01T18:53:05;5.21;73.88
69084;SHT31;56185;48.526;9.044;2023-02-01T18:55:31;5.18;74.02
69084;SHT31;56185;48.526;9.044;2023-02-01T18:57:58;5.24;74.01
69084;SHT31;56185;48.526;9.044;2023-02-01T19:00:23;5.18;74.28
69084;SHT31;56185;48.526;9.044;2023-02-01T19:02:49;5.23;74.37
69084;SHT31;56185;48.526;9.044;2023-02-01T19:05:14;5.28;74.00
69084;SHT31;56185;48.526;9.044;2023-02-01T19:07:41;5.20;74.28
69084;SHT31;56185;48.526;9.044;2023-02-01T19:10:09;5.10;74.46
69084;SHT31;56185;48.526;9.044;2023-02-01T19:12:35;5.14;74.46
69084;SHT31;56185;48.526;9.044;2023-02-01T19:15:00;5.15;74.68
69084;SHT31;56185;48.526;9.044;2023-02-01T19:17:27;5.18;74.63
69084;SHT31;56185;48.526;9.044;2023-02-01T19:19:52;5.18;74.47
69084;SHT31;56185;48.526;9.044;2023-02-01T19:22:18;5.14;74.76
69084;SHT31;56185;48.526;9.044;2023-02-01T19:24:43;5.11;74.92
69084;SHT31;56185;48.526;9.044;2023-02-01T19:27:08;5.11;74.94
69084;SHT31;56185;48.526;9.044;2023-02-01T19:29:33;5.03;75.38
69084;SHT31;56185;48.526;9.044;2023-02-01T19:31:59;4.96;75.71
69084;SHT31;56185;48.526;9.044;2023-02-01T19:34:24;4.96;75.96
69084;SHT31;56185;48.526;9.044;2023-02-01T19:36:49;5.00;75.66
69084;SHT31;56185;48.526;9.044;2023-02-01T19:39:15;4.97;75.38
69084;SHT31;56185;48.526;9.044;2023-02-01T19:41:43;4.96;75.86
69084;SHT31;56185;48.526;9.044;2023-02-01T19:44:08;4.88;76.09
69084;SHT31;56185;48.526;9.044;2023-02-01T19:46:33;4.97;76.10
69084;SHT31;56185;48.526;9.044;2023-02-01T19:48:59;5.04;75.91
69084;SHT31;56185;48.526;9.044;2023-02-01T19:51:24;5.10;75.71
69084;SHT31;56185;48.526;9.044;2023-02-01T19:53:49;5.07;75.12
69084;SHT31;56185;48.526;9.044;2023-02-01T19:56:14;5.04;75.40
69084;SHT31;56185;48.526;9.044;2023-02-01T19:58:40;5.14;74.88
69084;SHT31;56185;48.526;9.044;2023-02-01T20:01:06;5.18;75.16
69084;SHT31;56185;48.526;9.044;2023-02-01T20:03:34;5.13;75.31
69084;SHT31;56185;48.526;9.044;2023-02-01T20:06:01;5.10;75.33
69084;SHT31;56185;48.526;9.044;2023-02-01T20:08:26;5.15;74.87
69084;SHT31;56185;48.526;9.044;2023-02-01T20:10:51;5.21;74.94
69084;SHT31;56185;48.526;9.044;2023-02-01T20:13:17;5.30;74.86
69084;SHT31;56185;48.526;9.044;2023-02-01T20:15:42;5.18;74.59
69084;SHT31;56185;48.526;9.044;2023-02-01T20:18:08;5.17;74.90
69084;SHT31;56185;48.526;9.044;2023-02-01T20:20:34;5.18;74.54
69084;SHT31;56185;48.526;9.044;2023-02-01T20:22:59;5.21;74.79
69084;SHT31;56185;48.526;9.044;2023-02-01T20:25:24;5.27;74.38
69084;SHT31;56185;48.526;9.044;2023-02-01T20:27:50;5.25;74.63
69084;SHT31;56185;48.526;9.044;2023-02-01T20:30:17;5.21;74.72
69084;SHT31;56185;48.526;9.044;2023-02-01T20:32:43;5.24;74.76
69084;SHT31;56185;48.526;9.044;2023-02-01T20:35:08;5.17;74.80
69084;SHT31;56185;48.526;9.044;2023-02-01T20:37:34;5.13;74.60
69084;SHT31;56185;48.526;9.044;2023-02-01T20:40:00;5.15;74.90
69084;SHT31;56185;48.526;9.044;2023-02-01T20:42:25;5.21;74.53
69084;SHT31;56185;48.526;9.044;2023-02-01T20:44:51;5.11;74.85
69084;SHT31;56185;48.526;9.044;2023-02-01T20:47:17;5.23;74.64
69084;SHT31;56185;48.526;9.044;2023-02-01T20:49:42;5.27;74.70
69084;SHT31;56185;48.526;9.044;2023-02-01T20:52:07;5.14;74.75
69084;SHT31;56185;48.526;9.044;2023-02-01T20:54:32;5.15;75.18
69084;SHT31;56185;48.526;9.044;2023-02-01T20:56:58;5.18;75.15
69084;SHT31;56185;48.526;9.044;2023-02-01T20:59:23;5.23;74.73
69084;SHT31;56185;48.526;9.044;2023-02-01T21:01:48;5.14;75.05
69084;SHT31;56185;48.526;9.044;2023-02-01T21:04:14;5.14;74.88
69084;SHT31;56185;48.526;9.044;2023-02-01T21:06:39;5.20;75.27
69084;SHT31;56185;48.526;9.044;2023-02-01T21:09:05;5.18;75.64
69084;SHT31;56185;48.526;9.044;2023-02-01T21:11:31;5.20;75.06
69084;SHT31;56185;48.526;9.044;2023-02-01T21:13:56;5.18;75.06
69084;SHT31;56185;48.526;9.044;2023-02-01T21:16:21;5.15;74.99
69084;SHT31;56185;48.526;9.044;2023-02-01T21:18:50;5.14;75.49
69084;SHT31;56185;48.526;9.044;2023-02-01T21:21:16;5.15;75.76
69084;SHT31;56185;48.526;9.044;2023-02-01T21:23:41;5.13;75.55
69084;SHT31;56185;48.526;9.044;2023-02-01T21:26:06;5.14;75.46
69084;SHT31;56185;48.526;9.044;2023-02-01T21:28:32;5.27;75.35
69084;SHT31;56185;48.526;9.044;2023-02-01T21:30:57;5.15;75.33
69084;SHT31;56185;48.526;9.044;2023-02-01T21:33:22;5.23;75.85
69084;SHT31;56185;48.526;9.044;2023-02-01T21:35:49;5.20;75.54
69084;SHT31;56185;48.526;9.044;2023-02-01T21:38:14;5.15;75.59
69084;SHT31;56185;48.526;9.044;2023-02-01T21:40:39;5.18;75.94
69084;SHT31;56185;48.526;9.044;2023-02-01T21:43:05;5.24;75.74
69084;SHT31;56185;48.526;9.044;2023-02-01T21:45:30;5.20;76.00
69084;SHT31;56185;48.526;9.044;2023-02-01T21:47:55;5.24;75.95
69084;SHT31;56185;48.526;9.044;2023-02-01T21:50:21;5.21;75.97
69084;SHT31;56185;48.526;9.044;2023-02-01T21:52:46;5.34;75.92
69084;SHT31;56185;48.526;9.044;2023-02-01T21:55:12;5.24;76.19
69084;SHT31;56185;48.526;9.044;2023-02-01T21:57:37;5.34;76.69
69084;SHT31;56185;48.526;9.044;2023-02-01T22:00:04;5.27;77.70
69084;SHT31;56185;48.526;9.044;2023-02-01T22:02:30;5.21;77.99
69084;SHT31;56185;48.526;9.044;2023-02-01T22:04:55;5.11;78.19
69084;SHT31;56185;48.526;9.044;2023-02-01T22:07:21;5.14;78.42
69084;SHT31;56185;48.526;9.044;2023-02-01T22:09:46;5.15;78.34
69084;SHT31;56185;48.526;9.044;2023-02-01T22:12:12;5.14;78.03
69084;SHT31;56185;48.526;9.044;2023-02-01T22:14:38;5.20;77.85
69084;SHT31;56185;48.526;9.044;2023-02-01T22:17:03;5.07;78.12
69084;SHT31;56185;48.526;9.044;2023-02-01T22:19:29;5.18;78.07
69084;SHT31;56185;48.526;9.044;2023-02-01T22:21:55;5.13;77.97
69084;SHT31;56185;48.526;9.044;2023-02-01T22:24:21;5.13;77.90
69084;SHT31;56185;48.526;9.044;2023-02-01T22:26:47;5.25;77.49
69084;SHT31;56185;48.526;9.044;2023-02-01T22:29:12;5.25;77.54
69084;SHT31;56185;48.526;9.044;2023-02-01T22:31:38;5.24;77.32
69084;SHT31;56185;48.526;9.044;2023-02-01T22:34:03;5.17;77.64
69084;SHT31;56185;48.526;9.044;2023-02-01T22:36:28;5.15;77.64
69084;SHT31;56185;48.526;9.044;2023-02-01T22:38:54;5.17;77.52
69084;SHT31;56185;48.526;9.044;2023-02-01T22:41:19;5.20;77.30
69084;SHT31;56185;48.526;9.044;2023-02-01T22:43:45;5.21;76.99
69084;SHT31;56185;48.526;9.044;2023-02-01T22:46:15;5.27;76.98
69084;SHT31;56185;48.526;9.044;2023-02-01T22:48:42;5.31;76.94
69084;SHT31;56185;48.526;9.044;2023-02-01T22:51:22;5.27;77.04
69084;SHT31;56185;48.526;9.044;2023-02-01T22:53:48;5.35;76.76
69084;SHT31;56185;48.526;9.044;2023-02-01T22:56:13;5.31;76.68
69084;SHT31;56185;48.526;9.044;2023-02-01T22:58:39;5.24;76.63
69084;SHT31;56185;48.526;9.044;2023-02-01T23:03:31;5.28;77.41
69084;SHT31;56185;48.526;9.044;2023-02-01T23:06:00;5.20;77.92
69084;SHT31;56185;48.526;9.044;2023-02-01T23:08:26;5.15;78.74
69084;SHT31;56185;48.526;9.044;2023-02-01T23:10:57;4.97;79.33
69084;SHT31;56185;48.526;9.044;2023-02-01T23:13:22;5.03;79.27
69084;SHT31;56185;48.526;9.044;2023-02-01T23:15:48;5.08;79.46
69084;SHT31;56185;48.526;9.044;2023-02-01T23:18:13;4.98;79.49
69084;SHT31;56185;48.526;9.044;2023-02-01T23:20:39;5.00;79.63
69084;SHT31;56185;48.526;9.044;2023-02-01T23:23:04;4.88;79.61
69084;SHT31;56185;48.526;9.044;2023-02-01T23:25:30;4.96;79.59
69084;SHT31;56185;48.526;9.044;2023-02-01T23:27:55;4.91;79.52
69084;SHT31;56185;48.526;9.044;2023-02-01T23:30:20;4.98;79.50
69084;SHT31;56185;48.526;9.044;2023-02-01T23:32:45;5.05;78.63
69084;SHT31;56185;48.526;9.044;2023-02-01T23:35:11;4.94;78.56
69084;SHT31;56185;48.526;9.044;2023-02-01T23:37:36;5.00;78.56
69084;SHT31;56185;48.526;9.044;2023-02-01T23:40:01;5.04;78.73
69084;SHT31;56185;48.526;9.044;2023-02-01T23:42:26;4.94;78.82
69084;SHT31;56185;48.526;9.044;2023-02-01T23:44:52;5.08;78.50
69084;SHT31;56185;48.526;9.044;2023-02-01T23:47:17;4.96;78.45
69084;SHT31;56185;48.526;9.044;2023-02-01T23:49:42;4.87;78.78
69084;SHT31;56185;48.526;9.044;2023-02-01T23:52:07;4.93;78.89
69084;SHT31;56185;48.526;9.044;2023-02-01T23:54:33;5.01;78.77